createdAt,value
2018-03-08T00:01:45.887Z,76.00
2018-03-08T00:04:15.069Z,76.10
2018-03-08T00:06:43.952Z,76.20
2018-03-08T00:09:12.063Z,76.20
2018-03-08T00:11:40.202Z,76.30
2018-03-08T00:14:09.101Z,76.30
2018-03-08T00:16:38.084Z,76.60
2018-03-08T00:19:06.972Z,76.40
2018-03-08T00:21:35.961Z,76.50
2018-03-08T00:24:04.848Z,76.60
2018-03-08T00:26:33.740Z,76.70
2018-03-08T00:29:02.765Z,76.90
2018-03-08T00:31:31.019Z,76.70
2018-03-08T00:33:59.908Z,76.90
2018-03-08T00:36:28.788Z,76.80
2018-03-08T00:38:57.688Z,76.80
2018-03-08T00:41:26.853Z,76.80
2018-03-08T00:43:55.048Z,76.80
2018-03-08T00:46:24.059Z,77.10
2018-03-08T00:48:53.036Z,77.20
2018-03-08T00:51:21.181Z,77.20
2018-03-08T00:53:49.322Z,77.10
2018-03-08T00:56:17.437Z,77.10
2018-03-08T00:58:46.345Z,76.80
2018-03-08T01:01:14.500Z,76.80
2018-03-08T01:03:43.381Z,76.50
2018-03-08T01:06:12.371Z,76.30
2018-03-08T01:08:41.269Z,76.30
2018-03-08T01:11:10.249Z,76.30
2018-03-08T01:13:38.363Z,76.30
2018-03-08T01:16:06.494Z,76.80
2018-03-08T01:18:34.620Z,76.20
2018-03-08T01:21:02.744Z,76.10
2018-03-08T01:23:31.633Z,76.20
2018-03-08T01:26:00.824Z,76.10
2018-03-08T01:28:29.753Z,76.00
2018-03-08T01:30:57.902Z,76.00
2018-03-08T01:33:26.881Z,76.80
2018-03-08T01:35:55.773Z,76.10
2018-03-08T01:38:24.773Z,76.00
2018-03-08T01:40:53.910Z,76.00
2018-03-08T01:43:22.137Z,76.00
2018-03-08T01:45:51.075Z,76.00
2018-03-08T01:48:19.219Z,75.90
2018-03-08T01:50:47.329Z,75.70
2018-03-08T01:53:15.674Z,75.50
2018-03-08T01:55:44.565Z,74.90
2018-03-08T01:58:13.522Z,75.10
2018-03-08T02:00:42.408Z,75.00
2018-03-08T02:03:11.308Z,74.90
2018-03-08T02:05:40.017Z,74.90
2018-03-08T02:08:08.228Z,74.90
2018-03-08T02:10:36.644Z,74.90
2018-03-08T02:13:05.557Z,75.00
2018-03-08T02:15:34.413Z,75.10
2018-03-08T02:18:03.320Z,75.00
2018-03-08T02:20:31.432Z,75.00
2018-03-08T02:22:59.650Z,74.80
2018-03-08T02:25:28.537Z,74.90
2018-03-08T02:27:57.427Z,74.90
2018-03-08T02:30:26.329Z,74.70
2018-03-08T02:32:54.462Z,74.60
2018-03-08T02:35:22.661Z,74.60
2018-03-08T02:37:51.549Z,74.70
2018-03-08T02:40:20.439Z,74.70
2018-03-08T02:42:49.313Z,74.80
2018-03-08T02:45:17.426Z,74.70
2018-03-08T02:47:45.556Z,74.70
2018-03-08T02:50:14.445Z,74.90
2018-03-08T02:52:43.362Z,74.90
2018-03-08T02:55:11.532Z,74.90
2018-03-08T02:57:39.636Z,74.90
2018-03-08T03:00:07.785Z,74.70
2018-03-08T03:02:35.898Z,74.70
2018-03-08T03:05:04.106Z,74.60
2018-03-08T03:07:32.215Z,74.30
2018-03-08T03:10:00.402Z,74.30
2018-03-08T03:12:28.480Z,74.20
2018-03-08T03:14:56.597Z,74.20
2018-03-08T03:17:25.512Z,74.30
2018-03-08T03:19:54.397Z,74.30
2018-03-08T03:22:22.537Z,74.30
2018-03-08T03:24:51.476Z,74.30
2018-03-08T03:27:19.601Z,74.30
2018-03-08T03:29:48.479Z,74.70
2018-03-08T03:32:16.630Z,74.60
2018-03-08T03:34:44.841Z,74.80
2018-03-08T03:37:13.722Z,75.00
2018-03-08T03:39:42.612Z,75.40
2018-03-08T03:42:11.497Z,75.60
2018-03-08T03:44:40.444Z,75.90
2018-03-08T03:47:08.555Z,75.70
2018-03-08T03:49:37.495Z,76.10
2018-03-08T03:52:06.442Z,76.30
2018-03-08T03:54:35.321Z,76.30
2018-03-08T03:57:03.489Z,76.30
2018-03-08T03:59:31.588Z,76.50
2018-03-08T04:02:00.624Z,76.50
2018-03-08T04:04:28.830Z,76.50
2018-03-08T04:06:57.023Z,76.60
2018-03-08T04:09:26.209Z,77.00
2018-03-08T04:11:55.080Z,77.40
2018-03-08T04:14:23.206Z,76.80
2018-03-08T04:16:51.339Z,77.00
2018-03-08T04:19:20.265Z,77.30
2018-03-08T04:21:49.144Z,77.40
2018-03-08T04:24:17.298Z,77.40
2018-03-08T04:26:46.182Z,77.90
2018-03-08T04:29:14.314Z,77.90
2018-03-08T04:31:42.512Z,77.90
2018-03-08T04:34:10.698Z,77.90
2018-03-08T04:36:39.900Z,78.00
2018-03-08T04:39:08.796Z,78.10
2018-03-08T04:41:37.676Z,78.10
2018-03-08T04:44:06.577Z,78.10
2018-03-08T04:46:34.695Z,78.10
2018-03-08T04:49:02.859Z,78.20
2018-03-08T04:51:30.969Z,78.00
2018-03-08T04:53:59.864Z,78.30
2018-03-08T04:56:28.860Z,78.90
2018-03-08T04:58:57.836Z,78.30
2018-03-08T05:01:27.073Z,79.10
2018-03-08T05:03:55.208Z,78.40
2018-03-08T05:06:23.326Z,78.40
2018-03-08T05:08:51.447Z,78.50
2018-03-08T05:11:20.361Z,78.30
2018-03-08T05:13:49.347Z,78.30
2018-03-08T05:16:18.225Z,78.30
2018-03-08T05:18:47.112Z,78.30
2018-03-08T05:21:16.296Z,78.60
2018-03-08T05:23:44.446Z,78.60
2018-03-08T05:26:13.279Z,78.50
2018-03-08T05:28:42.259Z,78.40
2018-03-08T05:31:11.142Z,78.40
2018-03-08T05:33:40.057Z,78.50
2018-03-08T05:36:08.178Z,78.30
2018-03-08T05:38:36.333Z,78.30
2018-03-08T05:41:04.467Z,78.30
2018-03-08T05:43:33.359Z,78.10
2018-03-08T05:46:01.822Z,78.10
2018-03-08T05:48:30.712Z,78.00
2018-03-08T05:50:59.618Z,77.90
2018-03-08T05:53:28.505Z,77.70
2018-03-08T05:55:56.633Z,77.70
2018-03-08T05:58:25.048Z,77.70
2018-03-08T06:00:53.964Z,77.60
2018-03-08T06:03:22.054Z,77.60
2018-03-08T06:05:50.553Z,77.70
2018-03-08T06:08:20.168Z,77.50
2018-03-08T06:10:48.291Z,77.40
2018-03-08T06:13:16.464Z,77.50
2018-03-08T06:15:44.572Z,77.40
2018-03-08T06:18:12.780Z,77.40
2018-03-08T06:20:41.808Z,77.30
2018-03-08T06:23:09.912Z,77.30
2018-03-08T06:25:38.045Z,77.10
2018-03-08T06:28:06.220Z,77.10
2018-03-08T06:30:34.376Z,77.10
2018-03-08T06:33:02.507Z,77.20
2018-03-08T06:35:32.117Z,77.20
2018-03-08T06:38:00.251Z,77.20
2018-03-08T06:40:28.360Z,77.00
2018-03-08T06:42:56.954Z,76.80
2018-03-08T06:45:25.081Z,77.50
2018-03-08T06:47:53.196Z,76.60
2018-03-08T06:50:22.077Z,76.50
2018-03-08T06:52:50.214Z,76.50
2018-03-08T06:55:18.638Z,76.10
2018-03-08T06:57:47.628Z,75.90
2018-03-08T07:00:15.803Z,75.90
2018-03-08T07:02:44.713Z,75.40
2018-03-08T07:05:12.855Z,75.40
2018-03-08T07:07:41.761Z,75.20
2018-03-08T07:10:09.959Z,75.20
2018-03-08T07:12:38.096Z,75.10
2018-03-08T07:15:07.010Z,74.70
2018-03-08T07:17:35.111Z,74.60
2018-03-08T07:20:03.537Z,74.40
2018-03-08T07:22:32.422Z,73.70
2018-03-08T07:25:01.348Z,73.80
2018-03-08T07:27:30.304Z,73.50
2018-03-08T07:29:58.432Z,73.50
2018-03-08T07:32:26.536Z,73.50
2018-03-08T07:34:55.146Z,73.30
2018-03-08T07:37:24.020Z,72.60
2018-03-08T07:39:52.900Z,72.60
2018-03-08T07:42:21.808Z,71.60
2018-03-08T07:44:50.699Z,71.90
2018-03-08T07:47:18.840Z,71.90
2018-03-08T07:49:46.975Z,71.40
2018-03-08T07:52:15.093Z,71.00
2018-03-08T07:54:43.215Z,70.50
2018-03-08T07:57:11.329Z,70.20
2018-03-08T07:59:40.991Z,70.00
2018-03-08T08:02:09.172Z,70.00
2018-03-08T08:04:49.979Z,69.10
2018-03-08T08:10:30.005Z,68.40
2018-03-08T08:12:58.109Z,68.40
2018-03-08T08:15:26.226Z,68.60
2018-03-08T08:17:54.357Z,66.70
2018-03-08T08:20:22.476Z,67.90
2018-03-08T08:22:50.733Z,66.90
2018-03-08T08:25:18.876Z,67.50
2018-03-08T08:27:47.074Z,67.00
2018-03-08T08:30:15.232Z,66.40
2018-03-08T08:32:44.113Z,65.70
2018-03-08T08:35:13.009Z,65.20
2018-03-08T08:37:41.935Z,63.90
2018-03-08T08:40:10.045Z,63.80
2018-03-08T08:42:38.218Z,63.60
2018-03-08T08:45:06.345Z,63.10
2018-03-08T08:47:34.473Z,62.50
2018-03-08T08:50:03.381Z,61.60
2018-03-08T08:52:32.310Z,61.30
2018-03-08T08:55:00.448Z,61.30
2018-03-08T08:57:29.333Z,59.10
2018-03-08T08:59:58.251Z,58.00
2018-03-08T09:02:26.360Z,58.00
2018-03-08T09:04:54.511Z,58.30
2018-03-08T09:07:22.686Z,57.90
2018-03-08T09:09:50.800Z,57.10
2018-03-08T09:12:19.817Z,57.30
2018-03-08T09:14:47.960Z,57.30
2018-03-08T09:17:16.894Z,57.10
2018-03-08T09:19:45.137Z,57.10
2018-03-08T09:22:14.029Z,56.70
2018-03-08T09:24:42.170Z,56.70
2018-03-08T09:27:10.326Z,56.70
2018-03-08T09:29:38.439Z,56.70
2018-03-08T09:32:07.359Z,55.70
2018-03-08T09:34:35.500Z,55.70
2018-03-08T09:37:03.677Z,55.40
2018-03-08T09:39:31.800Z,55.40
2018-03-08T09:41:59.928Z,55.60
2018-03-08T09:44:28.042Z,55.40
2018-03-08T09:46:56.170Z,53.50
2018-03-08T09:49:24.289Z,52.50
2018-03-08T09:51:52.423Z,50.90
2018-03-08T09:54:20.565Z,51.40
2018-03-08T09:56:49.465Z,49.10
2018-03-08T09:59:18.398Z,49.40
2018-03-08T10:01:46.631Z,49.40
2018-03-08T10:04:14.753Z,48.00
2018-03-08T10:06:42.932Z,48.50
2018-03-08T10:09:11.059Z,47.70
2018-03-08T10:11:39.189Z,47.70
2018-03-08T10:14:07.324Z,46.60
2018-03-08T10:16:35.437Z,46.30
2018-03-08T10:19:03.559Z,45.90
2018-03-08T10:21:44.928Z,46.60
2018-03-08T10:23:59.946Z,44.90
2018-03-08T10:26:28.121Z,44.80
2018-03-08T10:28:57.796Z,46.00
2018-03-08T10:31:26.541Z,45.90
2018-03-08T10:33:55.408Z,45.60
2018-03-08T10:36:24.303Z,45.90
2018-03-08T10:38:53.213Z,46.20
2018-03-08T10:41:21.374Z,46.10
2018-03-08T10:43:50.278Z,47.20
2018-03-08T10:46:18.413Z,47.10
2018-03-08T10:51:16.237Z,47.70
2018-03-08T10:53:44.372Z,47.70
2018-03-08T10:56:13.297Z,46.80
2018-03-08T10:58:41.417Z,46.70
2018-03-08T11:01:18.822Z,44.70
2018-03-08T11:03:47.752Z,44.60
2018-03-08T11:06:20.839Z,43.10
2018-03-08T11:08:48.975Z,44.50
2018-03-08T11:11:17.181Z,44.10
2018-03-08T11:13:45.285Z,44.20
2018-03-08T11:16:13.493Z,43.00
2018-03-08T11:18:42.387Z,43.10
2018-03-08T11:21:11.296Z,43.30
2018-03-08T11:23:39.466Z,43.30
2018-03-08T11:26:08.355Z,43.10
2018-03-08T11:28:37.510Z,43.00
2018-03-08T11:31:05.645Z,42.90
2018-03-08T11:33:33.790Z,41.30
2018-03-08T11:36:01.942Z,41.50
2018-03-08T11:38:30.832Z,41.00
2018-03-08T11:40:58.984Z,41.10
2018-03-08T11:43:27.145Z,42.40
2018-03-08T11:45:55.250Z,43.40
2018-03-08T11:48:24.163Z,41.80
2018-03-08T11:50:52.332Z,41.80
2018-03-08T11:53:21.200Z,41.80
2018-03-08T11:55:50.101Z,41.60
2018-03-08T11:58:18.263Z,41.60
2018-03-08T12:00:46.495Z,41.20
2018-03-08T12:03:14.613Z,40.30
2018-03-08T12:05:44.544Z,38.40
2018-03-08T12:08:13.808Z,36.90
2018-03-08T12:10:41.927Z,37.80
2018-03-08T12:13:10.086Z,38.50
2018-03-08T12:15:38.279Z,39.80
2018-03-08T12:18:06.429Z,40.10
2018-03-08T12:20:34.547Z,40.20
2018-03-08T12:23:02.674Z,40.40
2018-03-08T12:25:31.485Z,41.00
2018-03-08T12:27:59.638Z,41.00
2018-03-08T12:30:27.792Z,37.60
2018-03-08T12:32:56.685Z,34.80
2018-03-08T12:35:24.865Z,34.80
2018-03-08T12:37:53.012Z,33.60
2018-03-08T12:40:21.178Z,33.40
2018-03-08T12:42:50.557Z,33.80
2018-03-08T12:45:18.770Z,32.90
2018-03-08T12:47:46.928Z,33.20
2018-03-08T12:50:15.828Z,32.70
2018-03-08T12:52:43.994Z,32.60
2018-03-08T12:55:12.163Z,31.90
2018-03-08T12:57:40.350Z,30.70
2018-03-08T13:00:08.505Z,31.50
2018-03-08T13:02:37.543Z,31.70
2018-03-08T13:05:05.677Z,30.90
2018-03-08T13:07:33.802Z,31.80
2018-03-08T13:10:02.052Z,31.70
2018-03-08T13:12:30.197Z,31.20
2018-03-08T13:14:58.346Z,31.50
2018-03-08T13:17:27.265Z,31.50
2018-03-08T13:19:55.411Z,31.50
2018-03-08T13:22:24.361Z,31.60
2018-03-08T13:24:52.551Z,31.60
2018-03-08T13:27:20.680Z,31.40
2018-03-08T13:29:48.844Z,31.60
2018-03-08T13:32:17.116Z,30.00
2018-03-08T13:34:45.246Z,30.30
2018-03-08T13:37:13.444Z,28.70
2018-03-08T13:39:42.389Z,27.00
2018-03-08T13:42:10.553Z,27.00
2018-03-08T13:44:38.705Z,26.00
2018-03-08T13:47:06.875Z,25.90
2018-03-08T13:49:36.976Z,25.30
2018-03-08T13:52:05.863Z,25.50
2018-03-08T13:54:33.999Z,25.50
2018-03-08T13:57:03.640Z,25.00
2018-03-08T13:59:31.791Z,25.00
2018-03-08T14:02:01.627Z,23.50
2018-03-08T14:04:30.504Z,23.30
2018-03-08T14:06:59.536Z,22.80
2018-03-08T14:09:27.680Z,22.80
2018-03-08T14:11:56.666Z,21.30
2018-03-08T14:14:25.571Z,21.60
2018-03-08T14:30:33.370Z,19.60
2018-03-08T14:33:07.333Z,19.60
2018-03-08T14:35:40.595Z,19.30
2018-03-08T14:38:17.873Z,19.50
2018-03-08T14:41:47.906Z,18.70
2018-03-08T14:44:18.464Z,18.70
2018-03-08T15:22:47.503Z,23.60
2018-03-08T15:25:15.752Z,24.00
2018-03-08T15:27:43.895Z,24.30
2018-03-08T15:30:12.043Z,24.70
2018-03-08T15:32:40.190Z,24.50
2018-03-08T15:35:08.329Z,25.00
2018-03-08T15:37:36.471Z,24.90
2018-03-08T15:40:04.647Z,25.30
2018-03-08T15:42:32.751Z,25.40
2018-03-08T15:45:00.902Z,25.10
2018-03-08T15:47:29.815Z,25.70
2018-03-08T15:49:57.974Z,25.70
2018-03-08T15:52:26.892Z,25.60
2018-03-08T15:54:55.018Z,25.60
2018-03-08T15:57:23.166Z,25.70
2018-03-08T15:59:51.322Z,24.70
2018-03-08T16:02:25.288Z,25.20
2018-03-08T16:04:54.193Z,25.10
2018-03-08T16:10:36.426Z,25.00
2018-03-08T16:13:04.590Z,25.30
2018-03-08T16:15:32.727Z,25.60
2018-03-08T16:18:00.864Z,25.90
2018-03-08T16:20:29.046Z,25.90
2018-03-08T16:22:57.182Z,25.80
2018-03-08T16:25:25.366Z,25.70
2018-03-08T16:27:53.469Z,26.20
2018-03-08T16:30:21.625Z,27.40
2018-03-08T16:32:49.795Z,27.80
2018-03-08T16:35:17.959Z,28.30
2018-03-08T16:37:46.227Z,28.90
2018-03-08T16:40:14.393Z,28.70
2018-03-08T16:42:42.524Z,29.20
2018-03-08T16:45:11.441Z,28.60
2018-03-08T16:47:40.350Z,28.90
2018-03-08T16:50:08.476Z,28.90
2018-03-08T16:52:37.409Z,30.00
2018-03-08T16:55:05.565Z,30.00
2018-03-08T16:57:33.742Z,30.90
2018-03-08T17:00:01.858Z,31.70
2018-03-08T17:02:29.974Z,32.20
2018-03-08T17:04:58.206Z,32.50
2018-03-08T17:07:26.458Z,33.20
2018-03-08T17:09:54.577Z,33.80
2018-03-08T17:12:22.724Z,34.90
2018-03-08T17:14:50.906Z,34.50
2018-03-08T17:17:19.390Z,35.10
2018-03-08T17:19:48.668Z,35.90
2018-03-08T17:22:16.897Z,35.90
2018-03-08T17:24:45.069Z,36.10
2018-03-08T17:27:13.201Z,37.50
2018-03-08T17:29:42.137Z,37.10
2018-03-08T17:32:10.241Z,37.10
2018-03-08T17:34:38.418Z,37.20
2018-03-08T17:37:06.554Z,38.10
2018-03-08T17:39:34.820Z,38.70
2018-03-08T17:42:02.927Z,40.10
2018-03-08T17:44:31.168Z,39.20
2018-03-08T17:46:59.293Z,40.10
2018-03-08T17:49:27.509Z,40.70
2018-03-08T17:51:55.679Z,40.20
2018-03-08T17:54:24.577Z,40.90
2018-03-08T17:56:52.871Z,40.80
2018-03-08T17:59:21.120Z,42.70
2018-03-08T18:01:49.231Z,42.40
2018-03-08T18:04:17.370Z,42.60
2018-03-08T18:06:45.540Z,42.20
2018-03-08T18:09:13.665Z,42.30
2018-03-08T18:11:42.564Z,43.30
2018-03-08T18:14:11.509Z,42.40
2018-03-08T18:16:40.411Z,43.40
2018-03-08T18:19:08.678Z,43.30
2018-03-08T18:21:36.818Z,43.40
2018-03-08T18:24:05.098Z,44.40
2018-03-08T18:26:33.247Z,43.70
2018-03-08T18:29:02.168Z,44.30
2018-03-08T18:31:30.335Z,44.30
2018-03-08T18:33:58.491Z,44.50
2018-03-08T18:36:27.341Z,43.70
2018-03-08T18:38:55.498Z,43.70
2018-03-08T18:41:23.648Z,44.50
2018-03-08T18:43:51.911Z,44.60
2018-03-08T18:46:20.660Z,44.40
2018-03-08T18:48:49.596Z,43.60
2018-03-08T18:51:17.726Z,43.50
2018-03-08T18:53:46.653Z,42.90
2018-03-08T18:56:14.771Z,42.80
2018-03-08T18:58:42.989Z,43.50
2018-03-08T19:01:11.981Z,43.80
2018-03-08T19:03:40.161Z,43.80
2018-03-08T19:06:08.310Z,43.30
2018-03-08T19:08:36.495Z,43.70
2018-03-08T19:11:05.402Z,43.70
2018-03-08T19:13:33.540Z,43.60
2018-03-08T19:16:02.464Z,43.10
2018-03-08T19:18:30.598Z,43.10
2018-03-08T19:20:59.532Z,42.80
2018-03-08T19:23:27.654Z,42.70
2018-03-08T19:25:56.578Z,42.50
2018-03-08T19:28:24.737Z,42.50
2018-03-08T19:30:53.640Z,43.00
2018-03-08T19:33:21.841Z,43.00
2018-03-08T19:35:50.009Z,43.20
2018-03-08T19:38:18.248Z,43.20
2018-03-08T19:40:47.130Z,43.50
2018-03-08T19:43:15.306Z,43.50
2018-03-08T19:45:43.469Z,43.40
2018-03-08T19:48:12.420Z,44.00
2018-03-08T19:50:40.557Z,44.00
2018-03-08T19:53:08.754Z,44.10
2018-03-08T19:55:37.003Z,44.40
2018-03-08T19:58:05.184Z,42.50
2018-03-08T20:00:33.343Z,43.70
2018-03-08T20:03:01.483Z,44.80
2018-03-08T20:05:30.398Z,46.10
2018-03-08T20:07:58.550Z,45.50
2018-03-08T20:10:27.429Z,46.00
2018-03-08T20:12:56.382Z,45.50
2018-03-08T20:15:24.520Z,45.50
2018-03-08T20:17:52.667Z,46.00
2018-03-08T20:20:21.621Z,47.30
2018-03-08T20:22:49.786Z,47.30
2018-03-08T20:25:17.937Z,46.70
2018-03-08T20:27:46.199Z,48.50
2018-03-08T20:30:15.118Z,47.90
2018-03-08T20:32:43.335Z,47.90
2018-03-08T20:35:12.241Z,48.40
2018-03-08T20:37:40.395Z,48.30
2018-03-08T20:40:08.604Z,48.00
2018-03-08T20:42:36.771Z,48.10
2018-03-08T20:45:04.984Z,49.20
2018-03-08T20:47:33.133Z,48.80
2018-03-08T20:50:01.308Z,48.90
2018-03-08T20:52:29.535Z,49.00
2018-03-08T20:54:57.743Z,49.30
2018-03-08T20:57:25.911Z,49.60
2018-03-08T20:59:54.050Z,49.80
2018-03-08T21:02:23.000Z,49.60
2018-03-08T21:04:51.208Z,49.60
2018-03-08T21:07:19.895Z,48.90
2018-03-08T21:09:48.519Z,49.40
2018-03-08T21:12:21.420Z,49.40
2018-03-08T21:14:50.089Z,49.40
2018-03-08T21:17:18.217Z,51.10
2018-03-08T21:19:47.143Z,49.00
2018-03-08T21:22:15.289Z,49.00
2018-03-08T21:24:44.192Z,46.50
2018-03-08T21:27:12.761Z,46.40
2018-03-08T21:29:40.953Z,46.20
2018-03-08T21:32:09.872Z,46.70
2018-03-08T21:34:38.124Z,46.70
2018-03-08T21:37:06.241Z,45.70
2018-03-08T21:39:34.374Z,45.80
2018-03-08T21:42:02.494Z,45.20
2018-03-08T21:44:31.430Z,43.20
2018-03-08T21:46:59.557Z,43.20
2018-03-08T21:49:28.468Z,43.50
2018-03-08T21:51:56.656Z,43.50
2018-03-08T21:54:24.831Z,44.00
2018-03-08T21:56:53.005Z,44.20
2018-03-08T21:59:21.268Z,43.70
2018-03-08T22:01:49.417Z,44.20
2018-03-08T22:04:18.318Z,45.00
2018-03-08T22:06:46.436Z,45.00
2018-03-08T22:09:14.549Z,44.90
2018-03-08T22:11:43.568Z,45.80
2018-03-08T22:14:12.457Z,46.00
2018-03-08T22:16:41.324Z,46.20
2018-03-08T22:19:10.281Z,46.20
2018-03-08T22:21:38.397Z,46.10
2018-03-08T22:24:06.587Z,46.50
2018-03-08T22:26:34.684Z,46.50
2018-03-08T22:29:02.834Z,46.30
2018-03-08T22:31:30.993Z,46.50
2018-03-08T22:33:59.866Z,45.80
2018-03-08T22:36:28.055Z,45.80
2018-03-08T22:38:56.942Z,43.70
2018-03-08T22:41:25.855Z,44.60
2018-03-08T22:43:54.063Z,44.60
2018-03-08T22:46:22.215Z,44.00
2018-03-08T22:48:50.326Z,44.50
2018-03-08T22:51:18.522Z,44.10
2018-03-08T22:53:47.473Z,43.60
2018-03-08T22:56:16.367Z,44.70
2018-03-08T22:58:45.262Z,44.10
2018-03-08T23:01:32.777Z,44.40
2018-03-08T23:04:01.040Z,44.30
2018-03-08T23:06:29.133Z,44.10
2018-03-08T23:08:58.053Z,44.50
2018-03-08T23:11:26.226Z,44.50
2018-03-08T23:13:54.327Z,44.50
2018-03-08T23:16:22.464Z,44.30
2018-03-08T23:18:50.637Z,44.20
2018-03-08T23:21:18.792Z,43.60
2018-03-08T23:23:47.686Z,43.70
2018-03-08T23:26:15.793Z,43.70
2018-03-08T23:28:43.917Z,43.40
2018-03-08T23:31:12.939Z,42.70
2018-03-08T23:33:41.048Z,42.70
2018-03-08T23:36:09.239Z,42.40
2018-03-08T23:38:38.234Z,42.30
2018-03-08T23:41:07.125Z,42.60
2018-03-08T23:43:36.045Z,42.20
2018-03-08T23:46:04.223Z,42.20
2018-03-08T23:48:32.334Z,42.50
2018-03-08T23:51:00.451Z,42.60
2018-03-08T23:53:28.589Z,42.00
2018-03-08T23:55:56.757Z,42.00
2018-03-08T23:58:25.674Z,41.90
